Green Valley, Arizona
Current Conditions -  °F | °C
As of 12:53 PM on Tuesday 21 Oct 2014 (Local Time) from KTUS Reporting Station
Clear Clear  
Wind Chill: 83°   Ceiling: Unl
Heat Index: 83°   Visibility: 10mi
Dew Point: 44°   Wind: 3mph
Humidity: 25%   Direction: 350°N
Pressure: 29.92"   Gusts: NA
Location:  31.91°N, 110.98°W
Report Text: KTUS 211953Z 35003KT 10SM CLR 28/07 A2992 RMK AO2 SLP090 T02830067
Loading
Personal Weather Stations






























Interactive Weather Map
Tropical Storm Tracking
New forecast layout! Learn more

10-Day Weather Forecast

Advertisements
Track Severe Weather on mobile